Time;durP1;ratioP1;P1;durP2;ratioP2;P2;SDS_P1;SDS_P2;PMS_P1;PMS_P2;Temp;Humidity;BMP_temperature;BMP_pressure;BME280_temperature;BME280_humidity;BME280_pressure;Samples;Min_cycle;Max_cycle;Signal;HPM_P1;HPM_P2
2022/01/22 00:00:35;;;;;;;12.40;8.18;;;;;;;4.55;100.00;100985.88;4917827;29;20033;-83
2022/01/22 00:03:01;;;;;;;12.55;8.07;;;;;;;4.24;100.00;100973.25;4918119;29;20071;-85
2022/01/22 00:05:27;;;;;;;12.95;8.02;;;;;;;4.22;100.00;100975.09;4919274;29;20154;-84
2022/01/22 00:07:53;;;;;;;13.02;8.27;;;;;;;4.26;100.00;100989.56;4916425;29;20499;-82
2022/01/22 00:10:22;;;;;;;15.43;9.07;;;;;;;4.22;100.00;100979.47;4917304;29;20039;-82
2022/01/22 00:15:22;;;;;;;12.32;8.80;;;;;;;4.34;100.00;100964.78;4918213;29;20036;-83
2022/01/22 00:17:48;;;;;;;13.20;8.88;;;;;;;4.19;100.00;100966.69;4902570;29;20066;-85
2022/01/22 00:20:17;;;;;;;11.40;8.43;;;;;;;4.18;100.00;100972.81;4916941;29;20040;-84
2022/01/22 00:22:43;;;;;;;12.80;8.55;;;;;;;4.10;100.00;100966.38;4903418;29;20044;-85
2022/01/22 00:25:10;;;;;;;10.68;7.82;;;;;;;4.12;100.00;100956.69;4917442;29;20032;-84
2022/01/22 00:27:39;;;;;;;12.95;7.65;;;;;;;4.21;100.00;100973.44;4918775;29;20043;-85
2022/01/22 00:30:07;;;;;;;15.20;8.32;;;;;;;4.21;100.00;100980.41;4918766;29;20020;-85
2022/01/22 00:32:32;;;;;;;11.05;6.80;;;;;;;4.06;100.00;100970.13;4902171;29;20028;-85
2022/01/22 00:34:58;;;;;;;12.43;7.13;;;;;;;4.15;100.00;100973.84;4915118;29;20039;-85
2022/01/22 00:37:23;;;;;;;9.00;6.97;;;;;;;4.13;100.00;100955.78;4918271;29;20032;-86
2022/01/22 00:39:51;;;;;;;11.52;6.50;;;;;;;4.18;100.00;100959.84;4917901;29;20502;-84
2022/01/22 00:42:17;;;;;;;12.35;6.53;;;;;;;4.10;100.00;100963.75;4917549;29;20115;-85
2022/01/22 00:44:43;;;;;;;11.55;6.72;;;;;;;4.19;100.00;100964.91;4917171;29;20052;-85
2022/01/22 00:47:10;;;;;;;9.00;6.10;;;;;;;4.16;100.00;100974.69;4917067;29;20483;-86
2022/01/22 00:49:36;;;;;;;10.13;7.13;;;;;;;4.17;100.00;100971.16;4918048;29;20101;-84
2022/01/22 00:52:04;;;;;;;12.15;7.18;;;;;;;4.16;100.00;100969.50;4917055;29;20051;-84
2022/01/22 00:54:30;;;;;;;12.00;6.90;;;;;;;4.09;100.00;100969.91;4918361;29;20068;-83
2022/01/22 00:56:57;;;;;;;11.52;7.07;;;;;;;4.16;100.00;100961.72;4918380;29;20095;-85
2022/01/22 00:59:23;;;;;;;11.45;6.97;;;;;;;4.05;100.00;100963.25;4916911;29;20036;-84
2022/01/22 01:01:49;;;;;;;11.55;7.40;;;;;;;4.16;100.00;100967.72;4916052;29;20024;-84
2022/01/22 01:04:15;;;;;;;11.40;6.93;;;;;;;4.16;100.00;100949.53;4917750;29;20139;-83
2022/01/22 01:06:41;;;;;;;11.98;6.75;;;;;;;4.04;100.00;100943.41;4916123;29;20071;-83
2022/01/22 01:09:09;;;;;;;14.07;7.28;;;;;;;4.07;100.00;100945.78;4931642;29;20032;-85
2022/01/22 01:11:43;;;;;;;11.32;6.82;;;;;;;4.13;100.00;100945.38;4917827;29;20383;-83
2022/01/22 01:14:16;;;;;;;11.18;7.15;;;;;;;4.05;100.00;100950.25;4915191;29;20132;-85
2022/01/22 01:33:23;;;;;;;10.80;7.35;;;;;;;3.93;100.00;100961.47;4912946;29;20071;-84
2022/01/22 01:35:49;;;;;;;10.35;7.35;;;;;;;3.92;100.00;100957.22;4916510;29;20435;-84
2022/01/22 01:38:18;;;;;;;11.60;8.25;;;;;;;3.81;100.00;100960.53;4915645;29;20036;-84
2022/01/22 01:40:50;;;;;;;13.57;7.47;;;;;;;3.82;100.00;100952.66;4915955;29;21926;-84
2022/01/22 01:43:25;;;;;;;13.75;7.57;;;;;;;3.90;100.00;100953.91;4914726;29;20036;-83
2022/01/22 01:45:51;;;;;;;14.40;7.85;;;;;;;3.82;100.00;100957.00;4915524;29;20060;-83
2022/01/22 01:48:22;;;;;;;10.63;7.22;;;;;;;3.83;100.00;100951.72;4915149;29;20398;-83
2022/01/22 01:50:47;;;;;;;12.68;7.45;;;;;;;3.87;100.00;100954.94;4914490;29;20040;-84
2022/01/22 01:53:31;;;;;;;11.13;8.02;;;;;;;3.82;100.00;100946.63;4917193;29;20056;-85
2022/01/22 01:58:23;;;;;;;12.40;7.07;;;;;;;3.84;100.00;100966.38;4916824;29;20035;-84
2022/01/22 02:00:50;;;;;;;13.25;7.18;;;;;;;3.95;100.00;100954.44;4917107;29;20040;-84
2022/01/22 02:03:15;;;;;;;10.75;6.80;;;;;;;4.00;100.00;100958.34;4913864;29;20068;-83
2022/01/22 02:05:41;;;;;;;10.95;7.22;;;;;;;3.92;100.00;100958.06;4916547;29;20554;-84
2022/01/22 02:08:12;;;;;;;14.75;6.95;;;;;;;3.82;100.00;100957.84;4917046;29;20091;-84
2022/01/22 02:10:47;;;;;;;12.18;7.47;;;;;;;3.92;100.00;100970.22;4915962;29;20455;-82
2022/01/22 02:13:44;;;;;;;16.05;9.10;;;;;;;3.96;100.00;100974.28;4912601;29;20036;-84
2022/01/22 02:24:57;;;;;;;19.02;9.93;;;;;;;3.88;100.00;100984.34;4912354;29;20534;-85
2022/01/22 02:27:23;;;;;;;16.48;9.40;;;;;;;3.84;100.00;100986.34;4916551;29;20483;-85
2022/01/22 02:29:49;;;;;;;21.13;9.80;;;;;;;3.81;100.00;100976.13;4916319;29;20119;-85
2022/01/22 02:35:04;;;;;;;16.98;10.60;;;;;;;3.91;100.00;100989.34;4914367;29;20091;-84
2022/01/22 02:37:35;;;;;;;19.08;10.70;;;;;;;3.85;100.00;100986.22;4917371;29;20032;-84
2022/01/22 02:40:08;;;;;;;21.88;10.93;;;;;;;3.92;100.00;100986.63;4914551;29;20028;-85
2022/01/22 02:42:35;;;;;;;18.13;9.95;;;;;;;3.88;100.00;101007.72;4914546;29;20034;-83
2022/01/22 02:45:07;;;;;;;19.20;10.80;;;;;;;4.00;100.00;101012.13;4914316;29;20115;-85
2022/01/22 02:47:33;;;;;;;22.88;12.25;;;;;;;3.82;100.00;100995.97;4913233;29;20028;-84
2022/01/22 02:49:59;;;;;;;19.50;10.43;;;;;;;3.97;100.00;100987.16;4914846;29;20099;-85
2022/01/22 02:52:26;;;;;;;21.65;11.57;;;;;;;3.84;100.00;100981.97;4914538;29;21177;-84
2022/01/22 02:54:51;;;;;;;20.58;10.70;;;;;;;4.12;100.00;100982.69;4913126;29;20031;-85
2022/01/22 02:57:17;;;;;;;21.15;10.90;;;;;;;3.95;100.00;101003.81;4915597;29;20056;-85
2022/01/22 02:59:43;;;;;;;22.45;12.43;;;;;;;4.03;100.00;100998.91;4912517;29;20114;-84
2022/01/22 03:02:13;;;;;;;17.13;10.93;;;;;;;3.96;100.00;101006.28;4913111;29;20545;-83
2022/01/22 03:04:40;;;;;;;19.60;11.27;;;;;;;3.91;100.00;100997.13;4914912;29;20048;-84
2022/01/22 03:07:06;;;;;;;19.25;10.63;;;;;;;3.91;100.00;100989.34;4914310;29;20032;-85
2022/01/22 03:09:41;;;;;;;18.15;11.48;;;;;;;3.92;100.00;100985.78;4913100;29;20043;-86
2022/01/22 03:20:22;;;;;;;20.40;10.73;;;;;;;3.83;100.00;100984.63;4912369;29;20032;-86
2022/01/22 03:28:00;;;;;;;18.33;8.82;;;;;;;4.11;100.00;100967.22;4911312;29;20132;-85
2022/01/22 03:30:26;;;;;;;18.27;10.02;;;;;;;4.10;100.00;100970.75;4916119;29;20494;-87
2022/01/22 03:32:54;;;;;;;17.10;9.35;;;;;;;4.01;100.00;100972.19;4916017;29;20025;-87
2022/01/22 03:37:51;;;;;;;15.70;8.68;;;;;;;4.12;100.00;100995.69;4916480;29;20133;-86
2022/01/22 03:40:21;;;;;;;16.25;9.00;;;;;;;4.13;100.00;100986.13;4911561;29;20095;-86
2022/01/22 03:42:47;;;;;;;15.70;8.15;;;;;;;4.16;100.00;100982.50;4900290;29;20036;-86
2022/01/22 03:45:13;;;;;;;14.43;8.38;;;;;;;4.24;100.00;100993.19;4918213;29;20167;-86
2022/01/22 03:47:39;;;;;;;14.35;7.75;;;;;;;4.12;100.00;100994.88;4917725;29;20075;-87
2022/01/22 03:50:08;;;;;;;10.85;6.95;;;;;;;4.27;100.00;100964.38;4919613;29;20030;-86
2022/01/22 03:52:33;;;;;;;12.10;7.10;;;;;;;4.34;100.00;100970.00;4916560;29;20039;-86
2022/01/22 03:54:59;;;;;;;12.30;7.22;;;;;;;4.41;100.00;100961.66;4918645;29;20065;-86
2022/01/22 03:57:25;;;;;;;14.18;7.63;;;;;;;4.27;100.00;100969.59;4902364;29;20052;-86
2022/01/22 03:59:54;;;;;;;10.63;6.47;;;;;;;4.34;100.00;100970.00;4919128;29;20065;-86
2022/01/22 04:05:02;;;;;;;12.15;6.50;;;;;;;4.46;100.00;100976.97;4916464;29;20191;-86
2022/01/22 04:10:01;;;;;;;10.40;5.80;;;;;;;4.27;100.00;100969.59;4919441;29;20107;-87
2022/01/22 04:15:20;;;;;;;9.43;5.72;;;;;;;4.28;100.00;100974.69;4918524;29;20054;-87
2022/01/22 04:25:59;;;;;;;7.63;4.72;;;;;;;4.49;100.00;100961.13;4916053;29;20557;-84
2022/01/22 04:28:25;;;;;;;8.65;4.93;;;;;;;4.51;100.00;100964.47;4917596;29;20042;-85
2022/01/22 04:30:51;;;;;;;7.85;4.70;;;;;;;4.36;100.00;100979.38;4918675;29;20029;-85
2022/01/22 04:33:17;;;;;;;7.15;4.28;;;;;;;4.39;100.00;100981.75;4917185;29;20034;-85
2022/01/22 04:35:42;;;;;;;7.60;4.10;;;;;;;4.48;100.00;100971.63;4917522;29;20040;-87
2022/01/22 04:38:09;;;;;;;7.72;4.45;;;;;;;4.40;100.00;100973.00;4916949;29;20028;-87
2022/01/22 04:40:35;;;;;;;6.70;3.92;;;;;;;4.28;100.00;100981.63;4916069;29;20111;-86
2022/01/22 04:43:03;;;;;;;6.35;3.75;;;;;;;4.48;100.00;100963.84;4918345;29;20043;-85
2022/01/22 04:56:07;;;;;;;6.10;4.28;;;;;;;4.41;100.00;100979.03;4913216;29;20079;-86
2022/01/22 04:58:33;;;;;;;6.45;3.78;;;;;;;4.61;100.00;100963.81;4918466;29;20083;-86
2022/01/22 05:00:58;;;;;;;6.53;3.67;;;;;;;4.65;100.00;100971.28;4915958;29;20032;-87
2022/01/22 05:03:24;;;;;;;6.57;4.13;;;;;;;4.56;100.00;100956.34;4917616;29;20494;-86
2022/01/22 05:05:50;;;;;;;6.80;3.85;;;;;;;4.43;100.00;100959.78;4916526;29;20084;-86
2022/01/22 05:08:15;;;;;;;7.00;3.53;;;;;;;4.58;100.00;100968.28;4915777;29;20032;-85
2022/01/22 05:10:42;;;;;;;6.47;3.83;;;;;;;4.64;100.00;100963.59;4916746;29;20398;-85
2022/01/22 05:13:07;;;;;;;6.38;3.80;;;;;;;4.81;100.00;100960.63;4916970;29;20031;-87
2022/01/22 05:15:33;;;;;;;6.18;3.70;;;;;;;4.76;100.00;100952.31;4916752;29;20028;-87
2022/01/22 05:17:59;;;;;;;5.70;3.92;;;;;;;4.71;100.00;100947.44;4901100;29;20091;-88
2022/01/22 05:20:30;;;;;;;5.68;3.83;;;;;;;4.77;100.00;100945.34;4899403;29;20060;-85
2022/01/22 05:23:02;;;;;;;5.68;3.65;;;;;;;4.80;100.00;100950.34;4912554;29;20047;-86
2022/01/22 05:25:36;;;;;;;6.35;3.42;;;;;;;4.49;100.00;100949.88;4915435;29;20071;-87
2022/01/22 05:28:15;;;;;;;5.40;3.75;;;;;;;4.51;100.00;100946.25;4915762;29;20024;-86
2022/01/22 05:38:23;;;;;;;4.10;2.92;;;;;;;4.20;100.00;100934.56;4916321;29;20036;-86
2022/01/22 05:40:49;;;;;;;6.00;3.33;;;;;;;4.28;100.00;100921.84;4914278;29;20036;-85
2022/01/22 05:43:15;;;;;;;5.13;3.28;;;;;;;4.36;100.00;100924.75;4915019;29;20143;-85
2022/01/22 05:45:42;;;;;;;9.38;3.63;;;;;;;4.13;100.00;100908.16;4913722;29;20035;-87
2022/01/22 05:48:09;;;;;;;4.57;3.05;;;;;;;4.25;100.00;100909.06;4912869;29;20081;-86
2022/01/22 05:50:49;;;;;;;5.28;3.20;;;;;;;4.11;100.00;100917.84;4916252;29;20493;-88
2022/01/22 05:53:45;;;;;;;5.45;3.20;;;;;;;3.96;100.00;100906.72;4915150;29;20036;-85
2022/01/22 06:01:17;;;;;;;6.55;4.13;;;;;;;4.14;100.00;100915.84;4910114;29;20040;-85
2022/01/22 06:03:44;;;;;;;7.70;4.68;;;;;;;4.21;100.00;100925.81;4898575;29;20074;-84
2022/01/22 06:06:12;;;;;;;10.48;5.20;;;;;;;4.42;100.00;100932.13;4913677;29;20391;-84
2022/01/22 06:08:56;;;;;;;8.23;4.90;;;;;;;4.39;100.00;100940.16;4898633;29;20036;-85
2022/01/22 06:11:24;;;;;;;11.38;5.22;;;;;;;4.41;100.00;100942.63;4898878;29;20032;-84
2022/01/22 06:13:50;;;;;;;9.20;5.40;;;;;;;4.54;100.00;100947.81;4915358;29;20044;-84
2022/01/22 06:16:18;;;;;;;8.95;4.88;;;;;;;4.46;100.00;100939.72;4915842;29;20474;-85
2022/01/22 06:18:44;;;;;;;8.70;5.38;;;;;;;4.68;100.00;100942.44;4915271;29;20501;-86
2022/01/22 06:21:11;;;;;;;7.45;4.47;;;;;;;4.74;100.00;100948.19;4911286;29;20044;-86
2022/01/22 06:23:38;;;;;;;7.38;4.60;;;;;;;4.71;100.00;100950.03;4896777;29;20055;-83
2022/01/22 06:26:05;;;;;;;9.27;5.50;;;;;;;4.59;100.00;100945.72;4912319;29;20546;-84
2022/01/22 06:28:31;;;;;;;9.35;5.07;;;;;;;4.71;100.00;100960.44;4914528;29;20066;-85
2022/01/22 06:30:59;;;;;;;8.02;5.40;;;;;;;4.54;100.00;100953.03;4914361;29;20036;-85
2022/01/22 06:33:25;;;;;;;11.98;5.88;;;;;;;4.58;100.00;100970.06;4913085;29;20051;-84
2022/01/22 06:35:51;;;;;;;9.70;5.03;;;;;;;4.58;100.00;100965.69;4915491;29;20024;-84
2022/01/22 06:38:18;;;;;;;9.07;5.13;;;;;;;4.80;100.00;100968.53;4898210;29;20031;-84
2022/01/22 06:43:29;;;;;;;6.88;4.55;;;;;;;4.65;100.00;100970.47;4913994;29;20036;-86
2022/01/22 06:45:55;;;;;;;11.52;5.03;;;;;;;4.52;100.00;100980.88;4914025;29;20390;-84
2022/01/22 06:48:21;;;;;;;11.43;5.82;;;;;;;4.58;100.00;100965.69;4914636;29;20035;-84
2022/01/22 06:50:49;;;;;;;12.60;5.80;;;;;;;4.50;100.00;100933.34;4898048;29;20032;-86
2022/01/22 06:53:14;;;;;;;9.38;5.78;;;;;;;4.34;100.00;100962.19;4915310;29;20086;-85
2022/01/22 06:55:54;;;;;;;9.25;5.97;;;;;;;4.42;100.00;100968.53;4897858;29;20498;-87
2022/01/22 06:58:20;;;;;;;9.50;5.60;;;;;;;4.46;100.00;100973.50;4915639;29;20036;-87
2022/01/22 07:00:46;;;;;;;9.25;5.78;;;;;;;4.38;100.00;100990.50;4898261;29;20036;-86
2022/01/22 07:03:12;;;;;;;14.65;6.22;;;;;;;4.37;100.00;100973.22;4913272;29;20039;-84
2022/01/22 07:05:37;;;;;;;13.98;6.68;;;;;;;4.40;100.00;100972.16;4914159;29;20058;-84
2022/01/22 07:08:03;;;;;;;11.25;6.78;;;;;;;4.50;100.00;100977.56;4914999;29;20058;-86
2022/01/22 07:10:30;;;;;;;9.77;6.47;;;;;;;4.64;100.00;100977.44;4914254;29;20031;-85
2022/01/22 07:12:56;;;;;;;12.10;6.65;;;;;;;4.76;100.00;100977.53;4914064;29;20127;-85
2022/01/22 07:15:22;;;;;;;11.40;6.93;;;;;;;4.58;100.00;100980.47;4929371;29;20131;-84
2022/01/22 07:17:47;;;;;;;13.35;6.57;;;;;;;4.60;100.00;100983.78;4914119;29;20044;-90
2022/01/22 07:20:25;;;;;;;9.32;6.25;;;;;;;4.68;100.00;100976.28;4920889;29;20074;-87
2022/01/22 07:22:54;;;;;;;12.65;7.05;;;;;;;4.57;100.00;100978.81;4916866;29;20492;-84
2022/01/22 07:25:19;;;;;;;12.15;6.63;;;;;;;4.50;100.00;100964.56;4918612;29;20047;-85
2022/01/22 07:27:45;;;;;;;11.27;5.70;;;;;;;4.46;100.00;100976.09;4934691;29;20036;-85
2022/01/22 07:30:13;;;;;;;13.63;6.97;;;;;;;4.43;100.00;100972.78;4921375;29;20495;-84
2022/01/22 07:32:42;;;;;;;12.70;6.93;;;;;;;4.47;100.00;100968.22;4919944;29;20032;-83
2022/01/22 07:35:17;;;;;;;13.02;6.15;;;;;;;4.35;100.00;100962.09;4920465;29;20075;-84
2022/01/22 07:37:42;;;;;;;;;;;;;;;4.55;100.00;100976.31;4919760;29;20430;-85
2022/01/22 07:40:10;;;;;;;11.48;6.43;;;;;;;4.62;100.00;100979.31;4918761;29;20022;-84
2022/01/22 07:42:37;;;;;;;10.15;6.53;;;;;;;4.65;100.00;100981.69;4919280;29;20036;-85
2022/01/22 07:45:04;;;;;;;14.40;5.80;;;;;;;4.66;100.00;100985.94;4901798;29;20034;-86
2022/01/22 07:47:30;;;;;;;15.27;6.05;;;;;;;4.53;100.00;100993.78;4916813;29;20474;-82
2022/01/22 07:49:56;;;;;;;9.68;5.88;;;;;;;4.60;100.00;100991.59;4917158;29;20119;-83
2022/01/22 07:52:23;;;;;;;15.40;6.07;;;;;;;4.53;100.00;100992.97;4915123;29;20028;-85
2022/01/22 07:54:48;;;;;;;10.80;5.63;;;;;;;4.70;100.00;100987.41;4917580;29;20059;-85
2022/01/22 07:57:14;;;;;;;9.65;5.97;;;;;;;4.68;100.00;100981.47;4916538;29;20496;-85
2022/01/22 07:59:39;;;;;;;16.63;6.10;;;;;;;4.60;100.00;100970.78;4924033;29;20475;-83
2022/01/22 08:02:05;;;;;;;12.38;5.88;;;;;;;4.65;100.00;100981.69;4918344;29;20040;-84
2022/01/22 08:04:32;;;;;;;10.60;5.93;;;;;;;4.86;100.00;100973.31;4917376;29;20036;-83
2022/01/22 08:06:59;;;;;;;15.85;6.78;;;;;;;4.76;100.00;100990.53;4911592;29;20047;-84
2022/01/22 08:09:25;;;;;;;12.98;6.57;;;;;;;4.75;100.00;100983.66;4914439;29;20036;-84
2022/01/22 08:11:51;;;;;;;12.32;6.30;;;;;;;4.70;100.00;100997.81;4912426;29;20028;-83
2022/01/22 08:14:18;;;;;;;10.98;5.65;;;;;;;4.81;100.00;100985.81;4914805;29;20028;-83
2022/01/22 08:16:48;;;;;;;10.07;5.80;;;;;;;4.81;100.00;100965.00;4911437;29;20040;-82
2022/01/22 08:19:14;;;;;;;10.77;4.78;;;;;;;4.89;100.00;100967.88;4913044;29;20491;-82
2022/01/22 08:21:40;;;;;;;7.47;4.55;;;;;;;5.07;100.00;100964.91;4916900;29;20073;-84
2022/01/22 08:24:06;;;;;;;9.43;4.25;;;;;;;5.03;100.00;100976.47;4903069;29;20108;-83
2022/01/22 08:26:39;;;;;;;16.55;5.22;;;;;;;5.13;100.00;100974.88;4914259;29;20039;-84
2022/01/22 08:29:05;;;;;;;14.93;4.88;;;;;;;5.15;100.00;100978.22;4909331;29;20028;-82
2022/01/22 08:36:45;;;;;;;8.48;4.13;;;;;;;5.01;100.00;100992.19;4914243;29;20040;-82
2022/01/22 08:39:17;;;;;;;9.68;5.13;;;;;;;5.23;100.00;100985.47;4917260;29;20047;-84
2022/01/22 08:41:43;;;;;;;10.15;4.55;;;;;;;5.33;100.00;100983.84;4915562;29;20036;-85
2022/01/22 08:44:10;;;;;;;15.70;4.78;;;;;;;5.17;100.00;100986.75;4917030;29;20039;-83
2022/01/22 08:46:37;;;;;;;12.10;4.75;;;;;;;5.53;100.00;100989.34;4899476;29;20047;-81
2022/01/22 08:49:04;;;;;;;9.60;4.70;;;;;;;5.50;100.00;100987.84;4914389;29;20467;-80
2022/01/22 08:51:33;;;;;;;8.25;4.97;;;;;;;5.69;100.00;100987.28;4915243;29;20035;-82
2022/01/22 08:54:01;;;;;;;7.43;3.40;;;;;;;5.50;100.00;100995.66;4897185;29;20052;-83
2022/01/22 08:56:28;;;;;;;8.68;4.85;;;;;;;5.85;100.00;100986.97;4912658;29;20043;-83
2022/01/22 08:58:55;;;;;;;7.65;4.53;;;;;;;5.74;100.00;100980.91;4914024;29;20035;-83
2022/01/22 09:01:21;;;;;;;13.30;3.78;;;;;;;5.53;100.00;100977.19;4916858;29;20032;-86
2022/01/22 09:03:48;;;;;;;7.32;4.03;;;;;;;5.82;100.00;100981.16;4931616;29;20490;-84
2022/01/22 09:06:17;;;;;;;13.00;4.53;;;;;;;5.69;100.00;100976.03;4915927;29;20035;-84
2022/01/22 09:11:37;;;;;;;9.70;4.18;;;;;;;5.58;100.00;100982.03;4916773;29;20077;-85
2022/01/22 09:14:05;;;;;;;11.32;3.58;;;;;;;5.55;100.00;100980.50;4913422;29;20032;-86
2022/01/22 09:16:31;;;;;;;9.32;3.80;;;;;;;5.78;100.00;100980.56;4916703;29;20044;-85
2022/01/22 09:19:05;;;;;;;6.18;3.65;;;;;;;5.75;100.00;100978.19;4900142;29;20035;-86
2022/01/22 09:21:37;;;;;;;6.28;3.10;;;;;;;5.75;100.00;100999.03;4915103;29;20036;-81
2022/01/22 09:24:03;;;;;;;9.90;3.72;;;;;;;5.74;100.00;100989.56;4915765;29;20167;-85
2022/01/22 09:26:29;;;;;;;6.63;3.13;;;;;;;5.89;100.00;101002.34;4914355;29;20044;-85
2022/01/22 09:28:58;;;;;;;6.43;2.65;;;;;;;5.79;100.00;100997.00;4915032;29;20032;-84
2022/01/22 09:31:24;;;;;;;6.00;3.03;;;;;;;5.95;100.00;100975.84;4912804;29;20040;-85
2022/01/22 09:33:50;;;;;;;6.45;2.97;;;;;;;5.90;100.00;100983.19;4913764;29;20028;-85
2022/01/22 09:36:16;;;;;;;5.43;2.67;;;;;;;6.25;100.00;100998.78;4914810;29;20035;-86
2022/01/22 09:38:41;;;;;;;6.65;3.65;;;;;;;6.16;100.00;100993.44;4914341;29;20036;-84
2022/01/22 09:41:07;;;;;;;10.65;3.90;;;;;;;6.21;100.00;100991.31;4913117;29;20398;-84
2022/01/22 09:43:33;;;;;;;7.18;3.08;;;;;;;6.30;100.00;100988.00;4915624;29;20034;-84
2022/01/22 09:45:59;;;;;;;10.02;3.60;;;;;;;6.46;100.00;100994.63;4914727;29;20032;-85
2022/01/22 09:48:26;;;;;;;9.65;3.20;;;;;;;6.35;100.00;100995.47;4913962;29;20031;-85
2022/01/22 09:50:52;;;;;;;7.43;2.85;;;;;;;6.40;100.00;100999.38;4916052;29;20028;-84
2022/01/22 09:53:19;;;;;;;6.90;3.50;;;;;;;6.46;100.00;100994.63;4899155;29;20028;-85
2022/01/22 09:55:45;;;;;;;8.25;3.50;;;;;;;6.56;100.00;100998.19;4913726;29;20043;-85
2022/01/22 09:58:11;;;;;;;8.05;2.83;;;;;;;6.55;100.00;101004.38;4899558;29;20044;-85
2022/01/22 10:00:38;;;;;;;8.52;3.22;;;;;;;6.56;100.00;100995.59;4896814;29;20070;-83
2022/01/22 10:03:18;;;;;;;7.90;3.00;;;;;;;6.59;100.00;100995.34;4913669;29;20490;-85
2022/01/22 10:05:44;;;;;;;8.00;3.15;;;;;;;6.46;100.00;101010.28;4913243;29;20446;-81
2022/01/22 10:08:17;;;;;;;6.18;3.17;;;;;;;6.67;100.00;101013.00;4908781;29;20040;-83
2022/01/22 10:10:43;;;;;;;12.35;4.50;;;;;;;6.40;100.00;100990.75;4912949;29;20067;-84
2022/01/22 10:13:11;;;;;;;6.43;2.90;;;;;;;6.62;100.00;101012.53;4916124;29;20136;-83
2022/01/22 10:15:39;;;;;;;6.68;2.95;;;;;;;6.62;100.00;101015.97;4913607;29;20028;-83
2022/01/22 10:18:08;;;;;;;8.18;3.90;;;;;;;6.65;100.00;101015.72;4914425;29;20060;-83
2022/01/22 10:20:40;;;;;;;4.57;3.10;;;;;;;6.68;100.00;101019.88;4913535;29;20028;-83
2022/01/22 10:23:19;;;;;;;5.47;3.08;;;;;;;6.90;100.00;101007.75;4898916;29;20482;-83
2022/01/22 10:25:55;;;;;;;6.45;3.22;;;;;;;6.63;100.00;101022.84;4909712;29;20032;-83
2022/01/22 10:28:23;;;;;;;8.82;2.50;;;;;;;6.86;100.00;101022.81;4910355;29;20039;-86
2022/01/22 10:30:58;;;;;;;8.90;3.65;;;;;;;7.03;100.00;101029.34;4909048;29;20086;-84
2022/01/22 10:33:34;;;;;;;11.00;3.00;;;;;;;7.13;100.00;101019.81;4909698;29;20039;-84
2022/01/22 10:36:09;;;;;;;10.80;3.28;;;;;;;6.98;100.00;101032.31;4908868;29;20123;-85
2022/01/22 10:38:43;;;;;;;9.25;2.95;;;;;;;7.04;100.00;101036.22;4913906;29;20063;-84
2022/01/22 10:41:09;;;;;;;6.55;2.92;;;;;;;6.96;100.00;101029.00;4904855;29;20032;-85
2022/01/22 10:43:41;;;;;;;8.93;3.08;;;;;;;6.97;100.00;101043.69;4911145;29;20032;-84
2022/01/22 10:46:31;;;;;;;5.38;2.50;;;;;;;7.11;100.00;101039.19;4915875;29;20119;-85
2022/01/22 10:49:00;;;;;;;9.52;3.10;;;;;;;6.99;100.00;101049.63;4896255;29;20127;-84
2022/01/22 10:51:28;;;;;;;8.27;3.28;;;;;;;7.02;100.00;101060.78;4913564;29;20036;-84
2022/01/22 10:53:59;;;;;;;9.20;3.33;;;;;;;7.05;100.00;101060.53;4904139;29;20048;-83
2022/01/22 10:56:28;;;;;;;6.93;2.72;;;;;;;7.33;100.00;101034.84;4919537;29;20067;-87
2022/01/22 10:59:04;;;;;;;7.57;2.92;;;;;;;7.36;100.00;101030.19;4921432;29;20032;-85
2022/01/22 11:01:44;;;;;;;5.70;3.00;;;;;;;7.41;100.00;101035.03;4918784;29;20036;-85
2022/01/22 11:04:39;;;;;;;5.28;2.60;;;;;;;7.62;100.00;101031.63;4914128;29;20063;-82
2022/01/22 11:07:07;;;;;;;6.70;2.45;;;;;;;7.52;100.00;101028.94;4892252;29;20083;-86
2022/01/22 11:09:38;;;;;;;9.13;2.63;;;;;;;7.40;100.00;101028.16;4905687;29;20048;-83
2022/01/22 11:12:08;;;;;;;6.25;2.78;;;;;;;7.26;100.00;101029.28;4901096;29;20061;-84
2022/01/22 11:14:36;;;;;;;5.53;2.40;;;;;;;7.40;100.00;101028.16;4916403;29;20051;-83
2022/01/22 11:17:02;;;;;;;8.27;2.55;;;;;;;7.56;100.00;101040.78;4895624;29;20513;-84
2022/01/22 11:19:32;;;;;;;10.40;3.10;;;;;;;7.50;100.00;101044.75;4913548;29;20036;-81
2022/01/22 11:22:03;;;;;;;7.20;2.80;;;;;;;7.63;100.00;101051.59;4915502;29;20127;-81
2022/01/22 11:24:29;;;;;;;10.52;3.30;;;;;;;7.63;100.00;101056.81;4915124;29;20036;-84
2022/01/22 11:26:59;;;;;;;9.88;3.25;;;;;;;7.70;100.00;101056.19;4915930;29;20047;-83
2022/01/22 11:29:29;;;;;;;6.57;3.10;;;;;;;7.77;100.00;101051.28;4916925;29;20036;-82
2022/01/22 11:32:00;;;;;;;7.40;2.70;;;;;;;7.69;100.00;101035.41;4916884;29;20028;-83
2022/01/22 11:34:32;;;;;;;7.75;2.78;;;;;;;7.82;100.00;101030.81;4914640;29;20027;-82
2022/01/22 11:37:24;;;;;;;5.95;2.42;;;;;;;7.60;100.00;101046.59;4918710;29;20036;-82
2022/01/22 11:40:10;;;;;;;9.48;3.50;;;;;;;7.75;100.00;101057.59;4900383;29;20036;-82
2022/01/22 11:43:13;;;;;;;10.07;3.13;;;;;;;7.83;100.00;101056.00;4915770;29;20036;-81
2022/01/22 11:45:52;;;;;;;15.15;7.10;;;;;;;7.59;100.00;101035.34;4901281;29;20142;-82
2022/01/22 11:48:22;;;;;;;5.82;3.10;;;;;;;7.91;100.00;101028.41;4913505;29;20032;-86
2022/01/22 11:50:51;;;;;;;9.30;3.13;;;;;;;7.78;100.00;101021.56;4913915;29;20032;-82
2022/01/22 11:53:34;;;;;;;7.45;3.28;;;;;;;7.97;100.00;101035.72;4916989;29;20036;-82
2022/01/22 11:56:25;;;;;;;4.13;2.80;;;;;;;8.14;100.00;101035.16;4911024;29;20040;-83
2022/01/22 11:58:57;;;;;;;6.90;2.60;;;;;;;8.20;100.00;101046.06;4913418;29;20032;-83
2022/01/22 12:01:45;;;;;;;4.78;2.88;;;;;;;8.19;100.00;101020.84;4895186;29;20040;-83
2022/01/22 12:04:16;;;;;;;9.82;3.35;;;;;;;8.12;100.00;101016.16;4894686;29;20066;-83
2022/01/22 12:07:04;;;;;;;6.35;3.42;;;;;;;7.85;100.00;101004.41;4914863;29;20025;-83
2022/01/22 12:10:04;;;;;;;4.70;2.83;;;;;;;8.06;100.00;101011.44;4896446;29;20075;-83
2022/01/22 12:15:34;;;;;;;6.22;3.05;;;;;;;8.28;100.00;101030.56;4910256;29;20052;-82
2022/01/22 12:18:06;;;;;;;8.35;3.60;;;;;;;8.09;100.00;101024.25;4904928;29;20048;-83
2022/01/22 12:23:03;;;;;;;5.50;3.50;;;;;;;7.98;100.00;101027.78;4922966;29;20142;-82
2022/01/22 12:25:28;;;;;;;9.25;3.30;;;;;;;7.99;100.00;101024.19;4909531;29;20036;-82
2022/01/22 12:27:55;;;;;;;7.55;3.33;;;;;;;8.01;100.00;101031.91;4913035;29;20442;-82
2022/01/22 12:30:43;;;;;;;9.20;3.53;;;;;;;8.03;100.00;101019.53;4914851;29;20024;-81
2022/01/22 12:33:13;;;;;;;11.10;3.13;;;;;;;7.99;100.00;101010.28;4910475;29;20036;-82
2022/01/22 12:35:50;;;;;;;6.85;3.45;;;;;;;7.96;100.00;101014.00;4905669;29;20032;-82
2022/01/22 12:38:36;;;;;;;8.02;2.88;;;;;;;7.84;100.00;101002.75;4923543;29;20044;-82
2022/01/22 12:44:30;;;;;;;8.90;3.00;;;;;;;8.21;100.00;101024.16;4912012;29;20596;-81
2022/01/22 12:46:58;;;;;;;6.88;3.30;;;;;;;8.25;100.00;101036.03;4898255;29;20107;-81
2022/01/22 12:49:28;;;;;;;8.75;3.72;;;;;;;8.30;100.00;101026.00;4916269;29;20139;-81
2022/01/22 12:52:05;;;;;;;9.13;3.42;;;;;;;8.15;100.00;101018.50;4931929;29;20457;-81
2022/01/22 12:54:37;;;;;;;6.90;3.53;;;;;;;8.27;100.00;101049.81;4896758;29;20055;-81
2022/01/22 12:57:08;;;;;;;7.45;3.25;;;;;;;8.28;100.00;101026.13;4915504;29;20036;-81
2022/01/22 13:02:37;;;;;;;9.75;3.80;;;;;;;8.12;100.00;101039.69;4915200;29;20127;-83
2022/01/22 13:05:04;;;;;;;8.02;4.05;;;;;;;8.54;100.00;101041.41;4913857;29;20075;-82
2022/01/22 13:07:41;;;;;;;6.53;3.35;;;;;;;9.02;100.00;101044.34;4899314;29;20486;-83
2022/01/22 13:10:09;;;;;;;8.80;3.83;;;;;;;8.90;100.00;101048.88;4896973;29;20040;-83
2022/01/22 13:12:46;;;;;;;6.55;4.25;;;;;;;8.22;100.00;101049.38;4896311;29;20043;-86
2022/01/22 13:15:15;;;;;;;10.18;4.53;;;;;;;8.23;100.00;101044.00;4903546;29;20035;-84
2022/01/22 13:17:51;;;;;;;9.15;3.85;;;;;;;8.34;100.00;101035.25;4900115;29;20043;-87
2022/01/22 13:20:27;;;;;;;6.50;3.80;;;;;;;8.14;100.00;101044.78;4913742;29;20122;-83
2022/01/22 13:23:02;;;;;;;9.35;4.05;;;;;;;8.25;100.00;101041.25;4913416;29;20496;-85